Terminal Aerodrome Forecast
Issued by NWS Twin Cities, MN

Home | Current Version | Previous Version | Text Only | Print | Product List | Glossary On
Versions: 1 2 3 4 5 6 7 8 9 10 11 12 13 14 15 16 17 18 19 20
000
FTUS43 KMPX 102340
TAFEAU
TAF
KEAU 102340Z 1100/1124 00000KT P6SM SCT025 BKN080
     FM110800 17005KT 3/4SM -SN OVC015
     FM111100 16004KT 4SM -SN BR OVC010
     FM111500 28005KT 2SM -SN OVC008
     FM111800 32008KT P6SM SCT008 OVC015
     FM112100 33013G22KT P6SM BKN020=

USA.gov is the U.S. government's official web portal to all federal, state and local government web resources and services.